createdAt,value
2022-12-13T00:00:12.130Z,50.92
2022-12-13T00:01:11.285Z,50.27
2022-12-13T00:02:12.096Z,50.60
2022-12-13T00:03:11.165Z,50.27
2022-12-13T00:04:12.665Z,52.53
2022-12-13T00:05:12.853Z,50.76
2022-12-13T00:06:12.884Z,50.92
2022-12-13T00:07:12.006Z,50.43
2022-12-13T00:08:11.796Z,50.60
2022-12-13T00:09:11.925Z,50.92
2022-12-13T00:10:11.847Z,50.92
2022-12-13T00:11:12.116Z,50.60
2022-12-13T00:12:11.804Z,50.92
2022-12-13T00:13:11.885Z,50.92
2022-12-13T00:14:11.848Z,50.43
2022-12-13T00:15:12.237Z,50.92
2022-12-13T00:16:11.775Z,50.92
2022-12-13T00:17:12.024Z,50.92
2022-12-13T00:18:11.784Z,50.92
2022-12-13T00:19:11.944Z,50.92
2022-12-13T00:20:11.885Z,50.92
2022-12-13T00:21:11.706Z,50.60
2022-12-13T00:22:11.905Z,53.17
2022-12-13T00:23:11.683Z,50.92
2022-12-13T00:24:11.823Z,51.24
2022-12-13T00:25:12.024Z,51.08
2022-12-13T00:26:11.846Z,50.92
2022-12-13T00:27:11.764Z,51.24
2022-12-13T00:28:11.884Z,51.40
2022-12-13T00:29:11.605Z,51.40
2022-12-13T00:30:11.804Z,51.40
2022-12-13T00:31:51.747Z,51.56
2022-12-13T00:32:12.780Z,51.56
2022-12-13T00:33:11.664Z,52.05
2022-12-13T00:34:11.664Z,51.72
2022-12-13T00:35:11.861Z,52.05
2022-12-13T00:36:11.766Z,51.88
2022-12-13T00:37:11.687Z,51.72
2022-12-13T00:38:13.306Z,52.05
2022-12-13T00:39:12.444Z,52.21
2022-12-13T00:40:11.527Z,52.37
2022-12-13T00:41:11.624Z,52.53
2022-12-13T00:42:11.589Z,52.05
2022-12-13T00:43:11.646Z,51.88
2022-12-13T00:44:13.228Z,52.05
2022-12-13T00:45:11.662Z,51.72
2022-12-13T00:46:11.573Z,51.88
2022-12-13T00:47:11.624Z,51.72
2022-12-13T00:48:11.465Z,51.40
2022-12-13T00:49:13.247Z,51.88
2022-12-13T00:50:11.444Z,50.76
2022-12-13T00:51:11.583Z,51.24
2022-12-13T00:52:11.465Z,51.40
2022-12-13T00:53:11.356Z,51.56
2022-12-13T00:54:11.665Z,51.24
2022-12-13T00:55:11.652Z,54.14
2022-12-13T00:56:11.546Z,51.88
2022-12-13T00:57:11.405Z,51.40
2022-12-13T00:58:11.484Z,51.72
2022-12-13T00:59:11.464Z,51.40
2022-12-13T01:00:11.524Z,51.88
2022-12-13T01:01:11.329Z,51.24
2022-12-13T01:02:11.446Z,51.24
2022-12-13T01:03:11.396Z,51.56
2022-12-13T01:04:11.485Z,51.40
2022-12-13T01:05:11.615Z,51.56
2022-12-13T01:06:15.917Z,51.72
2022-12-13T01:07:11.365Z,51.72
2022-12-13T01:08:11.521Z,51.56
2022-12-13T01:09:11.285Z,52.05
2022-12-13T01:10:12.825Z,51.88
2022-12-13T01:11:11.266Z,52.21
2022-12-13T01:12:11.307Z,54.62
2022-12-13T01:13:11.287Z,52.21
2022-12-13T01:14:11.225Z,52.21
2022-12-13T01:15:11.612Z,52.53
2022-12-13T01:16:11.225Z,52.53
2022-12-13T01:17:11.376Z,52.53
2022-12-13T01:18:11.146Z,52.69
2022-12-13T01:19:11.352Z,52.37
2022-12-13T01:20:11.126Z,52.53
2022-12-13T01:21:12.953Z,52.53
2022-12-13T01:22:11.426Z,52.37
2022-12-13T01:23:11.287Z,52.69
2022-12-13T01:24:11.105Z,52.53
2022-12-13T01:25:11.122Z,53.33
2022-12-13T01:26:13.028Z,52.53
2022-12-13T01:27:11.006Z,52.53
2022-12-13T01:28:11.224Z,52.37
2022-12-13T01:29:11.046Z,52.37
2022-12-13T01:30:11.184Z,52.53
2022-12-13T01:31:12.725Z,52.21
2022-12-13T01:32:11.244Z,52.21
2022-12-13T01:33:14.249Z,52.53
2022-12-13T01:34:11.064Z,52.53
2022-12-13T01:35:11.067Z,52.37
2022-12-13T01:36:11.164Z,52.37
2022-12-13T01:37:12.570Z,52.37
2022-12-13T01:38:15.783Z,52.37
2022-12-13T01:39:14.826Z,54.14
2022-12-13T01:40:16.155Z,52.37
2022-12-13T01:41:16.711Z,52.69
2022-12-13T01:42:10.945Z,52.69
2022-12-13T01:43:14.624Z,52.53
2022-12-13T01:44:10.905Z,52.69
2022-12-13T01:45:11.026Z,52.21
2022-12-13T01:46:10.921Z,52.05
2022-12-13T01:47:11.067Z,52.05
2022-12-13T01:48:10.885Z,52.53
2022-12-13T01:49:19.338Z,52.37
2022-12-13T01:50:10.865Z,52.37
2022-12-13T01:51:11.028Z,51.88
2022-12-13T01:52:10.964Z,52.37
2022-12-13T01:53:10.884Z,52.21
2022-12-13T01:54:10.804Z,52.21
2022-12-13T01:55:11.005Z,52.21
2022-12-13T01:56:10.885Z,52.37
2022-12-13T01:57:10.863Z,52.85
2022-12-13T01:58:10.847Z,52.53
2022-12-13T01:59:10.727Z,51.24
2022-12-13T02:00:10.845Z,51.88
2022-12-13T02:01:10.793Z,51.40
2022-12-13T02:02:10.847Z,51.72
2022-12-13T02:03:21.373Z,51.08
2022-12-13T02:04:10.886Z,51.72
2022-12-13T02:05:10.758Z,52.21
2022-12-13T02:06:10.884Z,51.88
2022-12-13T02:07:10.744Z,51.56
2022-12-13T02:08:10.994Z,51.56
2022-12-13T02:09:10.705Z,51.88
2022-12-13T02:10:10.849Z,51.24
2022-12-13T02:11:10.766Z,51.56
2022-12-13T02:12:10.785Z,51.72
2022-12-13T02:13:10.766Z,51.88
2022-12-13T02:14:10.623Z,51.72
2022-12-13T02:15:10.745Z,51.72
2022-12-13T02:16:10.576Z,51.72
2022-12-13T02:17:10.745Z,53.33
2022-12-13T02:18:10.485Z,51.88
2022-12-13T02:19:10.846Z,51.88
2022-12-13T02:20:10.543Z,53.50
2022-12-13T02:21:10.723Z,52.37
2022-12-13T02:22:10.505Z,50.76
2022-12-13T02:23:10.686Z,51.56
2022-12-13T02:24:10.644Z,51.56
2022-12-13T02:25:10.685Z,51.40
2022-12-13T02:26:10.504Z,51.08
2022-12-13T02:27:10.639Z,49.63
2022-12-13T02:28:31.791Z,51.72
2022-12-13T02:29:10.645Z,51.40
2022-12-13T02:30:10.649Z,51.40
2022-12-13T02:31:10.360Z,52.37
2022-12-13T02:32:10.544Z,51.40
2022-12-13T02:33:10.425Z,51.40
2022-12-13T02:34:10.546Z,51.24
2022-12-13T02:35:10.465Z,51.56
2022-12-13T02:36:10.505Z,51.24
2022-12-13T02:37:17.991Z,51.08
2022-12-13T02:38:10.445Z,51.72
2022-12-13T02:39:10.407Z,52.05
2022-12-13T02:40:10.606Z,51.56
2022-12-13T02:41:10.308Z,51.72
2022-12-13T02:42:21.542Z,51.08
2022-12-13T02:43:10.486Z,51.88
2022-12-13T02:44:21.973Z,52.05
2022-12-13T02:45:14.478Z,51.72
2022-12-13T02:46:10.215Z,52.05
2022-12-13T02:47:12.720Z,51.88
2022-12-13T02:48:10.286Z,51.88
2022-12-13T02:49:10.386Z,51.88
2022-12-13T02:50:10.405Z,51.88
2022-12-13T02:51:10.443Z,51.72
2022-12-13T02:52:10.225Z,52.21
2022-12-13T02:53:11.225Z,51.88
2022-12-13T02:54:10.844Z,52.21
2022-12-13T02:55:12.549Z,52.21
2022-12-13T02:56:10.225Z,51.72
2022-12-13T02:57:10.345Z,51.88
2022-12-13T02:58:10.265Z,52.37
2022-12-13T02:59:10.305Z,52.05
2022-12-13T03:00:10.303Z,51.88
2022-12-13T03:01:28.404Z,52.21
2022-12-13T03:02:10.881Z,52.05
2022-12-13T03:03:10.178Z,52.21
2022-12-13T03:04:10.266Z,52.53
2022-12-13T03:05:09.985Z,52.05
2022-12-13T03:06:10.264Z,52.21
2022-12-13T03:07:10.065Z,52.21
2022-12-13T03:08:10.254Z,52.21
2022-12-13T03:09:10.115Z,52.21
2022-12-13T03:10:10.284Z,52.21
2022-12-13T03:11:11.945Z,52.53
2022-12-13T03:12:10.185Z,52.05
2022-12-13T03:13:10.024Z,52.69
2022-12-13T03:14:10.165Z,52.69
2022-12-13T03:15:10.086Z,52.69
2022-12-13T03:16:10.295Z,52.37
2022-12-13T03:17:09.983Z,52.53
2022-12-13T03:18:09.905Z,52.37
2022-12-13T03:19:10.044Z,52.69
2022-12-13T03:20:12.938Z,52.69
2022-12-13T03:21:10.144Z,52.53
2022-12-13T03:22:10.005Z,52.37
2022-12-13T03:23:10.145Z,52.85
2022-12-13T03:24:09.945Z,52.69
2022-12-13T03:25:10.103Z,52.37
2022-12-13T03:26:09.824Z,52.53
2022-12-13T03:27:10.185Z,52.69
2022-12-13T03:28:09.945Z,52.69
2022-12-13T03:29:10.023Z,53.01
2022-12-13T03:30:09.906Z,53.01
2022-12-13T03:31:10.195Z,53.17
2022-12-13T03:32:11.424Z,53.01
2022-12-13T03:33:10.044Z,52.69
2022-12-13T03:34:09.845Z,52.53
2022-12-13T03:35:21.963Z,52.69
2022-12-13T03:36:09.845Z,52.85
2022-12-13T03:37:09.669Z,52.53
2022-12-13T03:38:09.965Z,52.53
2022-12-13T03:39:09.764Z,53.66
2022-12-13T03:40:09.864Z,50.76
2022-12-13T03:41:09.746Z,52.69
2022-12-13T03:42:09.904Z,52.53
2022-12-13T03:43:09.806Z,52.85
2022-12-13T03:44:11.586Z,52.85
2022-12-13T03:45:09.764Z,53.01
2022-12-13T03:46:09.946Z,53.01
2022-12-13T03:47:10.064Z,52.85
2022-12-13T03:48:11.364Z,53.01
2022-12-13T03:49:16.849Z,53.17
2022-12-13T03:50:26.278Z,53.17
2022-12-13T03:51:09.784Z,53.17
2022-12-13T03:52:09.905Z,53.50
2022-12-13T03:53:09.783Z,52.85
2022-12-13T03:54:10.105Z,53.33
2022-12-13T03:55:09.863Z,52.85
2022-12-13T03:56:09.524Z,53.50
2022-12-13T03:57:09.783Z,53.66
2022-12-13T03:58:09.523Z,53.01
2022-12-13T03:59:10.207Z,53.01
2022-12-13T04:00:09.649Z,53.01
2022-12-13T04:01:09.665Z,53.33
2022-12-13T04:02:11.008Z,52.85
2022-12-13T04:03:09.767Z,52.85
2022-12-13T04:04:09.725Z,53.01
2022-12-13T04:05:09.689Z,53.17
2022-12-13T04:06:09.708Z,53.01
2022-12-13T04:07:21.847Z,52.69
2022-12-13T04:08:12.456Z,53.50
2022-12-13T04:09:09.566Z,52.37
2022-12-13T04:10:25.241Z,52.85
2022-12-13T04:11:09.403Z,61.07
2022-12-13T04:12:09.652Z,61.23
2022-12-13T04:13:09.464Z,54.30
2022-12-13T04:14:09.705Z,65.58
2022-12-13T04:15:09.444Z,54.30
2022-12-13T04:16:09.612Z,53.98
2022-12-13T04:17:09.446Z,52.69
2022-12-13T04:18:09.465Z,52.69
2022-12-13T04:19:10.563Z,54.79
2022-12-13T04:20:09.566Z,52.69
2022-12-13T04:21:09.445Z,52.69
2022-12-13T04:22:09.466Z,52.85
2022-12-13T04:23:10.354Z,52.69
2022-12-13T04:24:09.665Z,52.69
2022-12-13T04:25:09.446Z,52.53
2022-12-13T04:26:09.305Z,52.69
2022-12-13T04:27:09.524Z,52.69
2022-12-13T04:28:09.286Z,53.01
2022-12-13T04:29:09.506Z,53.66
2022-12-13T04:30:09.203Z,64.29
2022-12-13T04:31:09.477Z,53.66
2022-12-13T04:32:25.962Z,53.01
2022-12-13T04:33:09.465Z,52.69
2022-12-13T04:34:09.283Z,52.69
2022-12-13T04:35:11.324Z,53.01
2022-12-13T04:36:09.186Z,53.01
2022-12-13T04:37:09.383Z,52.85
2022-12-13T04:38:09.285Z,52.85
2022-12-13T04:39:22.341Z,53.98
2022-12-13T04:40:10.704Z,52.85
2022-12-13T04:41:09.243Z,53.01
2022-12-13T04:42:09.182Z,53.01
2022-12-13T04:43:09.026Z,52.69
2022-12-13T04:44:27.866Z,53.01
2022-12-13T04:45:09.243Z,53.33
2022-12-13T04:46:09.363Z,53.98
2022-12-13T04:47:09.145Z,53.50
2022-12-13T04:48:09.123Z,54.46
2022-12-13T04:49:09.065Z,53.01
2022-12-13T04:50:09.365Z,53.50
2022-12-13T04:51:09.023Z,53.17
2022-12-13T04:52:09.144Z,53.01
2022-12-13T04:53:09.146Z,53.17
2022-12-13T04:54:24.325Z,53.01
2022-12-13T04:55:09.103Z,53.17
2022-12-13T04:56:10.905Z,53.01
2022-12-13T04:57:09.143Z,52.69
2022-12-13T04:58:08.927Z,53.01
2022-12-13T04:59:09.084Z,53.50
2022-12-13T05:00:09.005Z,53.01
2022-12-13T05:01:09.175Z,52.85
2022-12-13T05:02:10.642Z,53.66
2022-12-13T05:03:09.163Z,52.69
2022-12-13T05:04:08.924Z,52.85
2022-12-13T05:05:09.086Z,52.85
2022-12-13T05:06:26.988Z,54.95
2022-12-13T05:07:09.143Z,53.17
2022-12-13T05:08:08.994Z,55.27
2022-12-13T05:09:11.475Z,53.17
2022-12-13T05:10:08.850Z,52.69
2022-12-13T05:11:08.964Z,54.14
2022-12-13T05:12:12.915Z,52.85
2022-12-13T05:13:08.963Z,53.98
2022-12-13T05:14:08.965Z,53.01
2022-12-13T05:15:08.724Z,53.01
2022-12-13T05:16:09.005Z,53.50
2022-12-13T05:17:08.825Z,52.85
2022-12-13T05:18:09.584Z,52.69
2022-12-13T05:19:08.884Z,54.79
2022-12-13T05:20:08.864Z,53.98
2022-12-13T05:21:08.844Z,53.66
2022-12-13T05:22:08.923Z,53.17
2022-12-13T05:23:08.943Z,53.33
2022-12-13T05:24:08.845Z,58.81
2022-12-13T05:25:09.204Z,53.17
2022-12-13T05:26:08.883Z,53.50
2022-12-13T05:27:25.863Z,53.33
2022-12-13T05:28:27.572Z,55.27
2022-12-13T05:29:09.125Z,54.14
2022-12-13T05:30:09.225Z,54.79
2022-12-13T05:31:23.426Z,51.72
2022-12-13T05:32:08.715Z,57.36
2022-12-13T05:33:08.963Z,53.33
2022-12-13T05:34:08.664Z,54.46
2022-12-13T05:35:08.724Z,68.32
2022-12-13T05:36:08.625Z,67.03
2022-12-13T05:37:08.864Z,67.19
2022-12-13T05:38:08.704Z,67.51
2022-12-13T05:39:27.749Z,75.57
2022-12-13T05:40:09.304Z,77.18
2022-12-13T05:41:08.664Z,65.58
2022-12-13T05:42:07.844Z,58.17
2022-12-13T05:43:21.963Z,66.23
2022-12-13T05:44:08.685Z,57.36
2022-12-13T05:45:08.784Z,57.36
2022-12-13T05:46:08.588Z,64.94
2022-12-13T05:47:08.704Z,68.16
2022-12-13T05:48:09.506Z,59.14
2022-12-13T05:49:08.526Z,55.43
2022-12-13T05:50:08.683Z,54.79
2022-12-13T05:51:09.711Z,55.91
2022-12-13T05:52:08.665Z,55.43
2022-12-13T05:53:10.087Z,55.91
2022-12-13T05:54:09.005Z,57.52
2022-12-13T05:55:08.524Z,61.39
2022-12-13T05:56:08.644Z,61.71
2022-12-13T05:57:08.465Z,61.71
2022-12-13T05:58:13.328Z,61.71
2022-12-13T05:59:08.623Z,63.81
2022-12-13T06:00:29.323Z,83.95
2022-12-13T06:01:07.709Z,66.06
2022-12-13T06:02:08.710Z,67.51
2022-12-13T06:03:08.535Z,67.03
2022-12-13T06:04:08.505Z,67.35
2022-12-13T06:05:08.643Z,67.84
2022-12-13T06:06:08.545Z,67.68
2022-12-13T06:07:08.542Z,63.33
2022-12-13T06:08:24.757Z,63.97
2022-12-13T06:09:08.849Z,64.13
2022-12-13T06:10:11.007Z,63.97
2022-12-13T06:11:10.117Z,64.29
2022-12-13T06:12:32.232Z,63.65
2022-12-13T06:13:22.165Z,63.81
2022-12-13T06:14:22.306Z,66.39
2022-12-13T06:15:21.612Z,63.97
2022-12-13T06:16:08.356Z,63.65
2022-12-13T06:17:08.445Z,63.33
2022-12-13T06:18:08.364Z,65.26
2022-12-13T06:19:08.465Z,64.13
2022-12-13T06:20:23.205Z,64.78
2022-12-13T06:21:08.564Z,65.90
2022-12-13T06:22:08.384Z,64.94
2022-12-13T06:23:08.185Z,64.94
2022-12-13T06:24:08.304Z,65.10
2022-12-13T06:25:08.164Z,65.10
2022-12-13T06:26:08.943Z,63.97
2022-12-13T06:27:08.164Z,63.81
2022-12-13T06:28:08.366Z,63.33
2022-12-13T06:29:08.160Z,64.13
2022-12-13T06:30:08.304Z,63.97
2022-12-13T06:31:08.411Z,63.33
2022-12-13T06:32:08.304Z,63.00
2022-12-13T06:33:08.128Z,64.13
2022-12-13T06:34:14.432Z,63.49
2022-12-13T06:35:08.992Z,63.97
2022-12-13T06:36:08.286Z,76.05
2022-12-13T06:37:08.223Z,74.12
2022-12-13T06:38:11.894Z,81.05
2022-12-13T06:39:08.084Z,65.58
2022-12-13T06:40:07.984Z,69.13
2022-12-13T06:41:08.204Z,88.14
2022-12-13T06:42:09.649Z,74.93
2022-12-13T06:43:08.165Z,74.12
2022-12-13T06:44:08.065Z,72.35
2022-12-13T06:45:08.205Z,72.99
2022-12-13T06:46:08.029Z,66.23
2022-12-13T06:47:11.659Z,73.32
2022-12-13T06:48:07.926Z,72.19
2022-12-13T06:49:08.023Z,77.18
2022-12-13T06:50:09.166Z,71.87
2022-12-13T06:51:08.944Z,74.44
2022-12-13T06:52:08.047Z,68.48
2022-12-13T06:53:08.243Z,74.28
2022-12-13T06:54:08.007Z,70.42
2022-12-13T06:55:07.983Z,68.64
2022-12-13T06:56:09.026Z,74.93
2022-12-13T06:57:07.802Z,70.25
2022-12-13T06:58:08.104Z,69.45
2022-12-13T06:59:07.783Z,70.90
2022-12-13T07:00:07.927Z,71.22
2022-12-13T07:01:06.874Z,68.64
2022-12-13T07:02:25.275Z,69.29
2022-12-13T07:03:07.657Z,68.96
2022-12-13T07:04:30.356Z,68.48
2022-12-13T07:05:08.051Z,68.16
2022-12-13T07:06:07.584Z,68.64
2022-12-13T07:07:07.510Z,68.64
2022-12-13T07:08:07.680Z,67.68
2022-12-13T07:09:07.429Z,72.51
2022-12-13T07:10:07.521Z,70.25
2022-12-13T07:11:08.280Z,70.25
2022-12-13T07:12:07.530Z,69.61
2022-12-13T07:13:07.490Z,70.25
2022-12-13T07:14:07.292Z,70.74
2022-12-13T07:15:07.470Z,71.87
2022-12-13T07:16:07.340Z,68.80
2022-12-13T07:17:07.885Z,71.70
2022-12-13T07:18:07.393Z,67.68
2022-12-13T07:19:23.109Z,68.64
2022-12-13T07:20:07.270Z,68.16
2022-12-13T07:21:07.452Z,71.06
2022-12-13T07:22:07.300Z,68.48
2022-12-13T07:23:07.442Z,69.13
2022-12-13T07:24:08.332Z,69.45
2022-12-13T07:25:06.622Z,68.64
2022-12-13T07:26:07.302Z,68.32
2022-12-13T07:27:07.482Z,68.32
2022-12-13T07:28:07.364Z,80.24
2022-12-13T07:29:07.410Z,81.05
2022-12-13T07:30:07.414Z,81.53
2022-12-13T07:31:07.526Z,82.02
2022-12-13T07:32:06.523Z,82.02
2022-12-13T07:33:08.110Z,82.02
2022-12-13T07:34:10.575Z,82.02
2022-12-13T07:35:07.202Z,82.02
2022-12-13T07:36:07.361Z,75.09
2022-12-13T07:37:07.532Z,75.25
2022-12-13T07:38:07.885Z,75.73
2022-12-13T07:39:07.160Z,81.53
2022-12-13T07:40:07.381Z,82.02
2022-12-13T07:41:07.719Z,82.82
2022-12-13T07:42:08.040Z,82.50
2022-12-13T07:43:07.111Z,82.50
2022-12-13T07:44:07.190Z,83.14
2022-12-13T07:45:07.362Z,70.90
2022-12-13T07:46:07.327Z,67.68
2022-12-13T07:47:07.180Z,69.93
2022-12-13T07:48:07.150Z,71.70
2022-12-13T07:49:07.123Z,67.84
2022-12-13T07:50:07.161Z,67.35
2022-12-13T07:51:07.331Z,63.16
2022-12-13T07:52:07.010Z,65.58
2022-12-13T07:53:07.504Z,61.23
2022-12-13T07:54:07.210Z,63.97
2022-12-13T07:55:07.410Z,62.04
2022-12-13T07:56:07.001Z,61.55
2022-12-13T07:57:07.921Z,58.33
2022-12-13T07:58:06.971Z,58.97
2022-12-13T07:59:07.091Z,56.72
2022-12-13T08:00:07.002Z,61.23
2022-12-13T08:01:07.134Z,67.68
2022-12-13T08:02:08.077Z,70.74
2022-12-13T08:03:06.251Z,61.23
2022-12-13T08:04:07.062Z,60.91
2022-12-13T08:05:26.727Z,61.23
2022-12-13T08:06:07.029Z,54.95
2022-12-13T08:07:07.970Z,53.33
2022-12-13T08:08:07.116Z,53.66
2022-12-13T08:09:07.454Z,53.66
2022-12-13T08:10:07.281Z,53.50
2022-12-13T08:11:07.220Z,53.33
2022-12-13T08:12:07.001Z,53.66
2022-12-13T08:13:06.190Z,53.33
2022-12-13T08:14:07.022Z,53.50
2022-12-13T08:15:09.411Z,53.50
2022-12-13T08:16:27.350Z,56.07
2022-12-13T08:17:06.802Z,53.98
2022-12-13T08:18:07.071Z,56.88
2022-12-13T08:19:07.391Z,57.20
2022-12-13T08:20:07.401Z,54.14
2022-12-13T08:21:23.941Z,53.66
2022-12-13T08:22:06.081Z,54.62
2022-12-13T08:23:07.030Z,54.62
2022-12-13T08:24:11.116Z,51.88
2022-12-13T08:25:07.091Z,51.56
2022-12-13T08:26:06.631Z,54.62
2022-12-13T08:27:06.880Z,51.56
2022-12-13T08:28:06.882Z,61.71
2022-12-13T08:29:06.800Z,65.10
2022-12-13T08:30:06.661Z,63.81
2022-12-13T08:31:06.791Z,63.49
2022-12-13T08:32:06.866Z,72.51
2022-12-13T08:33:06.734Z,62.84
2022-12-13T08:34:06.720Z,61.71
2022-12-13T08:35:06.741Z,58.33
2022-12-13T08:36:06.701Z,63.16
2022-12-13T08:37:06.736Z,51.24
2022-12-13T08:38:06.701Z,71.54
2022-12-13T08:39:06.512Z,53.98
2022-12-13T08:40:06.793Z,49.79
2022-12-13T08:41:06.620Z,49.79
2022-12-13T08:42:15.047Z,50.43
2022-12-13T08:43:06.512Z,51.56
2022-12-13T08:44:07.090Z,53.66
2022-12-13T08:45:06.600Z,50.60
2022-12-13T08:46:06.831Z,71.22
2022-12-13T08:47:06.492Z,73.96
2022-12-13T08:48:06.776Z,72.51
2022-12-13T08:49:06.734Z,61.39
2022-12-13T08:50:06.805Z,61.55
2022-12-13T08:51:06.655Z,59.94
2022-12-13T08:52:06.981Z,66.39
2022-12-13T08:53:06.990Z,62.36
2022-12-13T08:54:10.783Z,61.71
2022-12-13T08:55:06.572Z,72.03
2022-12-13T08:56:07.362Z,68.48
2022-12-13T08:57:06.600Z,70.09
2022-12-13T08:58:06.380Z,71.87
2022-12-13T08:59:06.492Z,62.20
2022-12-13T09:00:06.311Z,79.76
2022-12-13T09:01:06.722Z,70.58
2022-12-13T09:02:06.392Z,72.67
2022-12-13T09:03:10.064Z,70.90
2022-12-13T09:04:07.111Z,64.61
2022-12-13T09:05:06.500Z,62.84
2022-12-13T09:06:07.421Z,75.57
2022-12-13T09:07:06.451Z,76.70
2022-12-13T09:08:22.890Z,61.23
2022-12-13T09:09:06.432Z,74.77
2022-12-13T09:10:07.068Z,76.38
2022-12-13T09:11:11.363Z,64.94
2022-12-13T09:12:10.941Z,59.94
2022-12-13T09:13:11.525Z,56.88
2022-12-13T09:14:05.750Z,63.16
2022-12-13T09:15:06.290Z,64.78
2022-12-13T09:16:13.968Z,59.94
2022-12-13T09:17:06.548Z,59.62
2022-12-13T09:18:07.297Z,62.68
2022-12-13T09:19:24.734Z,61.71
2022-12-13T09:20:10.193Z,62.84
2022-12-13T09:21:10.194Z,61.55
2022-12-13T09:22:06.781Z,59.78
2022-12-13T09:23:06.784Z,61.55
2022-12-13T09:24:06.670Z,59.30
2022-12-13T09:25:06.190Z,58.65
2022-12-13T09:26:06.828Z,59.62
2022-12-13T09:27:09.658Z,78.31
2022-12-13T09:28:07.459Z,77.83
2022-12-13T09:29:10.658Z,80.08
2022-12-13T09:30:06.832Z,72.19
2022-12-13T09:31:06.903Z,80.08
2022-12-13T09:32:06.976Z,78.15
2022-12-13T09:33:28.151Z,76.86
2022-12-13T09:34:07.381Z,70.25
2022-12-13T09:35:06.250Z,59.46
2022-12-13T09:36:06.382Z,77.67
2022-12-13T09:37:06.862Z,57.69
2022-12-13T09:38:05.350Z,67.03
2022-12-13T09:39:05.455Z,60.42
2022-12-13T09:40:16.217Z,63.00
2022-12-13T09:41:10.286Z,56.40
2022-12-13T09:42:10.479Z,57.20
2022-12-13T09:43:13.728Z,57.36
2022-12-13T09:44:06.706Z,80.41
2022-12-13T09:45:05.281Z,76.38
2022-12-13T09:46:05.291Z,74.77
2022-12-13T09:47:13.486Z,73.32
2022-12-13T09:48:13.262Z,46.89
2022-12-13T09:49:05.566Z,45.60
2022-12-13T09:50:05.448Z,45.12
2022-12-13T09:51:17.217Z,45.60
2022-12-13T09:52:10.884Z,78.47
2022-12-13T09:53:05.242Z,52.85
2022-12-13T09:54:05.290Z,47.21
2022-12-13T09:55:10.636Z,46.25
2022-12-13T09:56:10.810Z,47.05
2022-12-13T09:57:05.333Z,46.08
2022-12-13T09:58:05.110Z,48.02
2022-12-13T09:59:05.910Z,60.59
2022-12-13T10:00:05.902Z,62.20
2022-12-13T10:01:05.982Z,61.07
2022-12-13T10:02:05.694Z,48.18
2022-12-13T10:03:05.875Z,55.43
2022-12-13T10:04:05.861Z,58.81
2022-12-13T10:05:05.992Z,61.71
2022-12-13T10:06:05.862Z,53.33
2022-12-13T10:07:06.502Z,57.85
2022-12-13T10:08:05.732Z,66.87
2022-12-13T10:09:05.850Z,58.81
2022-12-13T10:10:06.412Z,63.49
2022-12-13T10:11:05.002Z,53.50
2022-12-13T10:12:04.950Z,61.07
2022-12-13T10:13:05.151Z,57.36
2022-12-13T10:14:05.951Z,40.61
2022-12-13T10:15:04.951Z,60.91
2022-12-13T10:16:06.623Z,61.23
2022-12-13T10:17:05.003Z,65.58
2022-12-13T10:18:06.957Z,69.61
2022-12-13T10:19:05.922Z,48.18
2022-12-13T10:20:04.873Z,44.63
2022-12-13T10:21:06.590Z,41.57
2022-12-13T10:22:05.785Z,41.09
2022-12-13T10:24:25.133Z,49.31
2022-12-13T10:25:06.038Z,61.23
2022-12-13T10:26:05.846Z,72.19
2022-12-13T10:27:06.441Z,62.52
2022-12-13T10:28:06.040Z,61.23
2022-12-13T10:29:06.270Z,58.81
2022-12-13T10:30:05.617Z,59.94
2022-12-13T10:31:05.652Z,46.41
2022-12-13T10:32:04.846Z,74.77
2022-12-13T10:33:07.031Z,58.17
2022-12-13T10:34:05.811Z,53.98
2022-12-13T10:35:05.745Z,51.08
2022-12-13T10:36:04.821Z,46.89
2022-12-13T10:37:04.731Z,56.56
2022-12-13T10:38:04.692Z,50.76
2022-12-13T10:39:05.080Z,48.18
2022-12-13T10:40:05.333Z,43.67
2022-12-13T10:41:06.603Z,45.12
2022-12-13T10:42:04.708Z,45.28
2022-12-13T10:43:05.882Z,47.53
2022-12-13T10:44:06.022Z,58.81
2022-12-13T10:45:05.442Z,52.21
2022-12-13T10:46:05.476Z,41.89
2022-12-13T10:47:05.282Z,42.54
2022-12-13T10:48:05.531Z,41.25
2022-12-13T10:49:05.408Z,49.79
2022-12-13T10:50:05.511Z,44.15
2022-12-13T10:51:05.332Z,45.60
2022-12-13T10:52:06.085Z,46.08
2022-12-13T10:53:05.990Z,47.70
2022-12-13T10:54:05.513Z,41.73
2022-12-13T10:55:22.935Z,61.71
2022-12-13T10:56:05.381Z,71.38
2022-12-13T10:57:05.252Z,42.06
2022-12-13T10:58:04.540Z,55.27
2022-12-13T10:59:05.240Z,41.09
2022-12-13T11:00:05.450Z,43.02
2022-12-13T11:01:05.622Z,46.89
2022-12-13T11:02:04.474Z,51.72
2022-12-13T11:03:05.388Z,47.70
2022-12-13T11:04:04.431Z,49.79
2022-12-13T11:05:11.056Z,47.37
2022-12-13T11:06:05.041Z,48.34
2022-12-13T11:07:05.372Z,48.82
2022-12-13T11:08:05.552Z,51.56
2022-12-13T11:09:05.290Z,48.50
2022-12-13T11:10:05.723Z,48.66
2022-12-13T11:11:05.660Z,48.50
2022-12-13T11:12:05.070Z,48.50
2022-12-13T11:13:05.511Z,49.15
2022-12-13T11:14:05.750Z,48.50
2022-12-13T11:15:05.872Z,48.98
2022-12-13T11:16:04.371Z,53.82
2022-12-13T11:17:04.401Z,48.98
2022-12-13T11:18:04.282Z,49.31
2022-12-13T11:19:04.425Z,48.50
2022-12-13T11:20:04.622Z,48.82
2022-12-13T11:21:04.484Z,49.15
2022-12-13T11:22:04.372Z,49.47
2022-12-13T11:23:04.391Z,49.95
2022-12-13T11:24:05.191Z,51.72
2022-12-13T11:25:05.161Z,50.43
2022-12-13T11:26:04.506Z,49.31
2022-12-13T11:27:04.229Z,49.31
2022-12-13T11:28:05.908Z,49.15
2022-12-13T11:29:05.981Z,49.31
2022-12-13T11:30:05.360Z,53.17
2022-12-13T11:31:05.582Z,59.94
2022-12-13T11:32:05.910Z,49.15
2022-12-13T11:33:04.171Z,50.27
2022-12-13T11:34:04.231Z,49.31
2022-12-13T11:35:05.820Z,49.47
2022-12-13T11:36:05.281Z,49.79
2022-12-13T11:37:05.270Z,49.95
2022-12-13T11:38:04.190Z,51.88
2022-12-13T11:39:05.471Z,49.95
2022-12-13T11:40:04.911Z,50.43
2022-12-13T11:41:04.094Z,49.79
2022-12-13T11:42:04.125Z,50.76
2022-12-13T11:43:05.513Z,50.27
2022-12-13T11:44:05.041Z,49.79
2022-12-13T11:45:04.044Z,55.75
2022-12-13T11:46:05.031Z,49.95
2022-12-13T11:47:04.093Z,50.27
2022-12-13T11:48:04.931Z,49.79
2022-12-13T11:49:04.832Z,50.76
2022-12-13T11:50:05.002Z,52.05
2022-12-13T11:51:03.995Z,50.11
2022-12-13T11:52:05.452Z,49.79
2022-12-13T11:53:05.252Z,51.88
2022-12-13T11:54:04.962Z,50.27
2022-12-13T11:55:03.954Z,50.27
2022-12-13T11:56:03.922Z,49.79
2022-12-13T11:57:04.602Z,49.79
2022-12-13T11:58:03.942Z,50.60
2022-12-13T11:59:08.551Z,53.17
2022-12-13T12:00:05.522Z,54.62
2022-12-13T12:01:04.821Z,55.11
2022-12-13T12:02:04.871Z,74.44
2022-12-13T12:03:05.500Z,51.88
2022-12-13T12:04:03.915Z,50.43
2022-12-13T12:05:04.702Z,50.60
2022-12-13T12:06:03.801Z,62.68
2022-12-13T12:07:24.374Z,51.40
2022-12-13T12:08:31.617Z,74.77
2022-12-13T12:09:03.894Z,72.83
2022-12-13T12:10:05.193Z,51.40
2022-12-13T12:11:04.831Z,52.37
2022-12-13T12:12:03.760Z,53.17
2022-12-13T12:13:04.551Z,59.46
2022-12-13T12:14:03.801Z,49.79
2022-12-13T12:15:05.019Z,53.17
2022-12-13T12:16:05.092Z,58.33
2022-12-13T12:17:04.580Z,54.79
2022-12-13T12:18:05.184Z,51.56
2022-12-13T12:19:03.754Z,56.07
2022-12-13T12:20:05.269Z,55.59
2022-12-13T12:21:03.682Z,79.28
2022-12-13T12:22:13.695Z,54.30
2022-12-13T12:23:04.590Z,63.00
2022-12-13T12:24:05.313Z,55.59
2022-12-13T12:25:03.652Z,65.90
2022-12-13T12:26:04.532Z,62.20
2022-12-13T12:27:04.070Z,82.82
2022-12-13T12:28:03.602Z,86.85
2022-12-13T12:29:06.151Z,87.17
2022-12-13T12:30:03.561Z,79.44
2022-12-13T12:31:03.681Z,53.17
2022-12-13T12:32:04.390Z,61.71
2022-12-13T12:33:03.560Z,53.82
2022-12-13T12:34:04.381Z,54.79
2022-12-13T12:35:04.340Z,52.69
2022-12-13T12:36:03.512Z,53.01
2022-12-13T12:37:05.363Z,59.78
2022-12-13T12:38:04.117Z,72.19
2022-12-13T12:39:03.572Z,72.51
2022-12-13T12:40:04.191Z,61.87
2022-12-13T12:41:18.874Z,61.71
2022-12-13T12:42:04.670Z,72.51
2022-12-13T12:43:15.423Z,70.58
2022-12-13T12:44:04.161Z,78.31
2022-12-13T12:45:04.441Z,79.60
2022-12-13T12:46:03.506Z,77.99
2022-12-13T12:49:03.633Z,80.41
2022-12-13T12:50:04.455Z,66.06
2022-12-13T12:51:05.302Z,66.06
2022-12-13T12:52:04.933Z,64.45
2022-12-13T12:53:03.422Z,59.62
2022-12-13T12:54:04.484Z,59.62
2022-12-13T12:55:05.121Z,59.62